< Typhoon 198116 1981 Season Typhoon 198118 >
Typhoon 198117 (WARREN)
General InformationTrack Information on Google MapsDetailed Wind InformationList of All Images || Disaster Info.ResourceGoogle EarthGE AnimationAtom FeedGeoJSON
Detalied Best Track (Time Zone = UTC)
Year Month Day Hour Lat. Long. Pressure (hPa) Wind (kt) Class Image Chart
1981 8 16 00 16.0 114.0 1000 0 2 Image Chart
1981 8 16 06 16.0 115.0 996 0 2 Image Chart
1981 8 16 12 16.5 115.0 996 0 2 Image Chart
1981 8 16 18 17.5 114.0 998 0 2 Image Chart
1981 8 17 00 18.0 113.5 998 0 2 Image Chart
1981 8 17 06 18.0 113.0 998 0 2 Image Chart
1981 8 17 12 18.0 112.5 998 0 2 Image Chart
1981 8 17 18 18.0 112.0 998 0 2 Image Chart
1981 8 18 00 18.0 111.5 998 0 2 Image Chart
1981 8 18 06 18.0 111.0 996 0 2 Image Chart
1981 8 18 12 18.3 110.5 994 0 2 Image Chart
1981 8 18 18 18.6 109.8 994 35 3 Image Chart
1981 8 19 00 18.8 109.2 994 35 3 Image Chart
1981 8 19 06 19.1 108.5 994 0 2 Image Chart
1981 8 19 12 19.4 107.9 994 0 2 Image Chart
1981 8 19 18 19.7 107.2 996 0 2 Image Chart
1981 8 20 00 20.0 106.5 996 0 2 Image Chart
1981 8 20 06 20.8 106.0 992 0 2 Image Chart
1981 8 20 12 21.2 104.8 996 0 2 Image Chart
1981 8 20 18 22.0 104.0 998 0 2 Image Chart
1981 8 21 00 22.0 103.5 1000 0 6 Image Chart
1981 8 21 06 22.0 103.0 1000 0 6 Image Chart
1981 8 21 12 23.0 102.0 1000 0 6 Image Chart
Japan Meteorological Agency Best Track Data | Correction Date : 1992-10-21
< Typhoon 198116 1981 Season Typhoon 198118 >

Help